createdAt,value
2018-08-11T00:00:06.359Z,19.02
2018-08-11T00:11:07.717Z,19.20
2018-08-11T00:22:08.942Z,19.18
2018-08-11T00:33:11.239Z,19.14
2018-08-11T00:44:11.981Z,19.05
2018-08-11T00:55:14.435Z,18.90
2018-08-11T01:06:15.909Z,18.82
2018-08-11T01:17:17.614Z,18.77
2018-08-11T01:28:17.739Z,18.69
2018-08-11T01:39:19.659Z,18.59
2018-08-11T01:50:20.977Z,18.39
2018-08-11T02:01:21.929Z,18.31
2018-08-11T02:12:24.421Z,18.28
2018-08-11T02:23:25.531Z,18.14
2018-08-11T02:34:26.495Z,17.96
2018-08-11T02:45:27.798Z,18.21
2018-08-11T02:56:30.244Z,18.46
2018-08-11T03:07:30.829Z,18.65
2018-08-11T03:18:33.240Z,18.59
2018-08-11T03:29:34.685Z,18.62
2018-08-11T03:40:37.425Z,18.67
2018-08-11T03:51:39.918Z,18.73
2018-08-11T04:02:40.016Z,18.67
2018-08-11T04:13:37.826Z,18.47
2018-08-11T04:24:39.989Z,18.21
2018-08-11T04:35:42.060Z,18.04
2018-08-11T04:46:43.167Z,17.89
2018-08-11T04:57:45.214Z,18.11
2018-08-11T05:08:47.311Z,18.39
2018-08-11T05:19:49.937Z,18.52
2018-08-11T05:30:52.549Z,18.74
2018-08-11T05:41:55.279Z,18.79
2018-08-11T05:52:58.351Z,18.94
2018-08-11T06:04:00.030Z,18.98
2018-08-11T06:14:58.881Z,19.05
2018-08-11T06:25:55.344Z,19.32
2018-08-11T06:36:56.390Z,19.64
2018-08-11T06:47:56.925Z,19.64
2018-08-11T06:58:56.392Z,19.76
2018-08-11T07:09:49.924Z,19.69
2018-08-11T07:20:51.137Z,19.61
2018-08-11T07:31:51.035Z,19.72
2018-08-11T07:42:53.365Z,19.75
2018-08-11T07:53:55.953Z,20.13
2018-08-11T08:04:57.879Z,20.51
2018-08-11T08:15:55.325Z,20.35
2018-08-11T08:26:57.267Z,20.38
2018-08-11T08:37:58.463Z,20.42
2018-08-11T08:48:57.064Z,20.69
2018-08-11T08:59:49.147Z,21.01
2018-08-11T09:10:51.714Z,21.30
2018-08-11T09:21:48.460Z,21.02
2018-08-11T09:32:46.544Z,21.02
2018-08-11T09:43:47.185Z,21.86
2018-08-11T09:54:49.555Z,21.75
2018-08-11T10:05:52.248Z,22.57
2018-08-11T10:16:54.892Z,23.18
2018-08-11T10:27:56.802Z,22.57
2018-08-11T10:38:57.252Z,24.37
2018-08-11T10:49:59.629Z,23.82
2018-08-11T11:01:01.328Z,23.70
2018-08-11T11:12:03.063Z,24.44
2018-08-11T11:22:59.036Z,25.32
2018-08-11T11:33:59.099Z,25.30
2018-08-11T11:44:56.552Z,26.20
2018-08-11T11:55:54.844Z,26.07
2018-08-11T12:06:53.392Z,24.75
2018-08-11T12:17:51.048Z,26.24
2018-08-11T12:28:52.178Z,26.79
2018-08-11T12:39:53.418Z,26.92
2018-08-11T12:50:51.400Z,27.74
2018-08-11T13:01:53.690Z,28.72
2018-08-11T13:12:51.490Z,28.71
2018-08-11T13:23:54.239Z,29.46
2018-08-11T13:34:57.475Z,31.57
2018-08-11T13:46:01.518Z,30.19
2018-08-11T13:57:05.770Z,31.70
2018-08-11T14:08:00.202Z,28.14
2018-08-11T14:18:53.109Z,29.71
2018-08-11T14:29:56.455Z,29.89
2018-08-11T14:40:59.169Z,33.11
2018-08-11T14:51:58.520Z,31.89
2018-08-11T15:03:02.145Z,30.50
2018-08-11T15:13:53.647Z,28.34
2018-08-11T15:24:58.364Z,28.41
2018-08-11T15:35:38.821Z,27.57
2018-08-11T15:46:35.668Z,26.16
2018-08-11T15:57:34.614Z,25.42
2018-08-11T16:08:35.692Z,25.30
2018-08-11T16:19:36.942Z,25.56
2018-08-11T16:30:38.957Z,25.96
2018-08-11T16:41:38.399Z,25.47
2018-08-11T16:52:34.357Z,25.23
2018-08-11T17:03:30.499Z,24.88
2018-08-11T17:14:31.762Z,24.88
2018-08-11T17:25:31.763Z,24.67
2018-08-11T17:36:32.582Z,24.10
2018-08-11T17:47:33.344Z,23.64
2018-08-11T17:58:33.357Z,23.26
2018-08-11T18:09:34.795Z,22.81
2018-08-11T18:20:35.351Z,22.49
2018-08-11T18:31:34.930Z,22.22
2018-08-11T18:42:35.445Z,21.94
2018-08-11T18:53:35.835Z,21.69
2018-08-11T19:04:37.471Z,21.67
2018-08-11T19:15:34.930Z,21.38
2018-08-11T19:26:35.105Z,21.24
2018-08-11T19:37:24.493Z,21.26
2018-08-11T19:48:21.121Z,21.45
2018-08-11T19:59:14.297Z,21.21
2018-08-11T20:10:15.646Z,21.23
2018-08-11T20:21:18.012Z,21.30
2018-08-11T20:32:17.773Z,21.06
2018-08-11T20:43:12.881Z,20.80
2018-08-11T20:54:10.688Z,20.62
2018-08-11T21:05:09.660Z,20.59
2018-08-11T21:16:09.344Z,20.59
2018-08-11T21:27:06.669Z,20.47
2018-08-11T21:38:05.234Z,20.33
2018-08-11T21:49:06.476Z,20.26
2018-08-11T22:00:08.039Z,19.90
2018-08-11T22:11:10.641Z,20.00
2018-08-11T22:22:12.566Z,20.03
2018-08-11T22:33:12.332Z,19.82
2018-08-11T22:44:11.609Z,19.76
2018-08-11T22:55:12.699Z,19.64
2018-08-11T23:06:13.806Z,19.64
2018-08-11T23:17:09.703Z,19.46
2018-08-11T23:28:12.584Z,19.51
2018-08-11T23:39:13.377Z,19.43
2018-08-11T23:50:13.898Z,19.39
